Time,TemperatureF,DewpointF,PressureIn,WindDirection,WindDirectionDegrees,WindSpeedMPH,WindSpeedGustMPH,Humidity,HourlyPrecipIn,Conditions,Clouds,dailyrainin,SoftwareType,DateUTC
2013-05-04 00:00:00,49.6,44.0,30.39,East,94,0.0,0.0,82,0.00,,,0.00,weatherlink.com 1.10,2013-05-04 04:00:00,
2013-05-04 00:15:00,49.1,45.0,30.39,East,94,0.0,0.0,84,0.00,,,0.00,weatherlink.com 1.10,2013-05-04 04:15:00,
2013-05-04 00:31:00,48.6,44.0,30.39,East,94,0.0,0.0,85,0.00,,,0.00,weatherlink.com 1.10,2013-05-04 04:31:00,
2013-05-04 00:46:00,48.1,44.0,30.38,East,94,0.0,0.0,86,0.00,,,0.00,weatherlink.com 1.10,2013-05-04 04:46:00,
2013-05-04 01:01:00,47.6,44.0,30.38,East,94,0.0,0.0,87,0.00,,,0.00,weatherlink.com 1.10,2013-05-04 05:01:00,
2013-05-04 01:16:00,47.2,44.0,30.38,East,94,0.0,0.0,88,0.00,,,0.00,weatherlink.com 1.10,2013-05-04 05:16:00,
2013-05-04 01:31:00,46.7,44.0,30.37,East,94,0.0,0.0,89,0.00,,,0.00,weatherlink.com 1.10,2013-05-04 05:31:00,
2013-05-04 01:46:00,46.3,43.0,30.37,East,94,0.0,0.0,89,0.00,,,0.00,weatherlink.com 1.10,2013-05-04 05:46:00,
2013-05-04 02:01:00,45.9,43.0,30.36,East,94,0.0,0.0,90,0.00,,,0.00,weatherlink.com 1.10,2013-05-04 06:01:00,
2013-05-04 02:16:00,45.6,43.0,30.35,East,94,0.0,0.0,91,0.00,,,0.00,weatherlink.com 1.10,2013-05-04 06:16:00,
2013-05-04 02:31:00,45.3,43.0,30.34,East,94,0.0,0.0,90,0.00,,,0.00,weatherlink.com 1.10,2013-05-04 06:31:00,
2013-05-04 02:46:00,44.9,43.0,30.34,East,94,0.0,0.0,91,0.00,,,0.00,weatherlink.com 1.10,2013-05-04 06:46:00,
2013-05-04 03:01:00,44.7,42.0,30.34,East,94,0.0,0.0,91,0.00,,,0.00,weatherlink.com 1.10,2013-05-04 07:01:00,
2013-05-04 03:16:00,44.3,42.0,30.34,East,94,0.0,0.0,92,0.00,,,0.00,weatherlink.com 1.10,2013-05-04 07:16:00,
2013-05-04 03:31:00,44.2,42.0,30.34,East,94,0.0,0.0,92,0.00,,,0.00,weatherlink.com 1.10,2013-05-04 07:31:00,
2013-05-04 03:46:00,44.2,42.0,30.34,East,94,0.0,0.0,93,0.00,,,0.00,weatherlink.com 1.10,2013-05-04 07:46:00,
2013-05-04 04:01:00,43.9,42.0,30.34,East,94,0.0,0.0,93,0.00,,,0.00,weatherlink.com 1.10,2013-05-04 08:01:00,
2013-05-04 04:16:00,44.0,42.0,30.33,East,94,0.0,0.0,94,0.00,,,0.00,weatherlink.com 1.10,2013-05-04 08:16:00,
2013-05-04 04:31:00,43.9,42.0,30.33,East,94,0.0,0.0,93,0.00,,,0.00,weatherlink.com 1.10,2013-05-04 08:31:00,
2013-05-04 04:46:00,43.9,42.0,30.33,East,94,0.0,0.0,94,0.00,,,0.00,weatherlink.com 1.10,2013-05-04 08:46:00,
2013-05-04 05:01:00,43.6,42.0,30.33,East,94,0.0,0.0,93,0.00,,,0.00,weatherlink.com 1.10,2013-05-04 09:01:00,
2013-05-04 05:16:00,43.4,42.0,30.33,East,94,0.0,0.0,94,0.00,,,0.00,weatherlink.com 1.10,2013-05-04 09:16:00,
2013-05-04 05:31:00,43.4,42.0,30.33,East,94,0.0,0.0,94,0.00,,,0.00,weatherlink.com 1.10,2013-05-04 09:31:00,
2013-05-04 05:46:00,43.3,42.0,30.33,East,94,0.0,0.0,94,0.00,,,0.00,weatherlink.com 1.10,2013-05-04 09:46:00,
2013-05-04 06:01:00,43.3,42.0,30.33,East,94,0.0,0.0,94,0.00,,,0.00,weatherlink.com 1.10,2013-05-04 10:01:00,
2013-05-04 06:16:00,43.3,42.0,30.33,East,94,0.0,0.0,94,0.00,,,0.00,weatherlink.com 1.10,2013-05-04 10:16:00,
2013-05-04 06:31:00,43.3,42.0,30.33,East,94,0.0,0.0,94,0.00,,,0.00,weatherlink.com 1.10,2013-05-04 10:31:00,
2013-05-04 06:46:00,43.6,42.0,30.34,East,94,0.0,0.0,94,0.00,,,0.00,weatherlink.com 1.10,2013-05-04 10:46:00,
2013-05-04 07:01:00,44.1,43.0,30.34,East,94,0.0,0.0,95,0.00,,,0.00,weatherlink.com 1.10,2013-05-04 11:01:00,
2013-05-04 07:16:00,44.8,44.0,30.33,East,94,2.0,2.0,95,0.00,,,0.00,weatherlink.com 1.10,2013-05-04 11:16:00,
2013-05-04 07:31:00,47.0,44.0,30.33,East,94,0.0,2.0,90,0.00,,,0.00,weatherlink.com 1.10,2013-05-04 11:31:00,
2013-05-04 07:46:00,48.9,45.0,30.34,NE,55,1.0,4.0,86,0.00,,,0.00,weatherlink.com 1.10,2013-05-04 11:46:00,
2013-05-04 08:01:00,50.3,46.0,30.34,NE,55,0.0,2.0,84,0.00,,,0.00,weatherlink.com 1.10,2013-05-04 12:01:00,
2013-05-04 08:16:00,51.5,45.0,30.34,NE,55,0.0,1.0,79,0.00,,,0.00,weatherlink.com 1.10,2013-05-04 12:16:00,
2013-05-04 08:31:00,52.8,46.0,30.34,NE,51,0.0,3.0,79,0.00,,,0.00,weatherlink.com 1.10,2013-05-04 12:31:00,
2013-05-04 08:46:00,54.7,44.0,30.34,NNW,335,2.0,6.0,68,0.00,,,0.00,weatherlink.com 1.10,2013-05-04 12:46:00,
2013-05-04 09:02:00,55.8,44.0,30.33,NNW,331,0.0,2.0,64,0.00,,,0.00,weatherlink.com 1.10,2013-05-04 13:02:00,
2013-05-04 09:17:00,56.8,43.0,30.33,North,350,1.0,5.0,60,0.00,,,0.00,weatherlink.com 1.10,2013-05-04 13:17:00,
2013-05-04 09:32:00,57.7,43.0,30.33,ENE,63,3.0,3.0,58,0.00,,,0.00,weatherlink.com 1.10,2013-05-04 13:32:00,
2013-05-04 09:47:00,58.5,44.0,30.32,ENE,63,0.0,2.0,59,0.00,,,0.00,weatherlink.com 1.10,2013-05-04 13:47:00,
2013-05-04 10:02:00,59.8,45.0,30.32,SSW,210,1.0,3.0,59,0.00,,,0.00,weatherlink.com 1.10,2013-05-04 14:02:00,
2013-05-04 10:17:00,60.6,44.0,30.32,WSW,258,0.0,5.0,55,0.00,,,0.00,weatherlink.com 1.10,2013-05-04 14:17:00,
2013-05-04 10:32:00,61.7,45.0,30.32,North,355,0.0,4.0,54,0.00,,,0.00,weatherlink.com 1.10,2013-05-04 14:32:00,
2013-05-04 10:47:00,63.2,46.0,30.31,SSW,196,1.0,6.0,54,0.00,,,0.00,weatherlink.com 1.10,2013-05-04 14:47:00,
2013-05-04 11:02:00,63.8,48.0,30.31,NNW,348,4.0,5.0,57,0.00,,,0.00,weatherlink.com 1.10,2013-05-04 15:02:00,
2013-05-04 11:17:00,65.2,47.0,30.30,NW,319,0.0,7.0,53,0.00,,,0.00,weatherlink.com 1.10,2013-05-04 15:17:00,
2013-05-04 11:32:00,66.5,45.0,30.30,NNE,18,1.0,9.0,46,0.00,,,0.00,weatherlink.com 1.10,2013-05-04 15:32:00,
2013-05-04 11:47:00,67.6,44.0,30.29,ENE,75,5.0,9.0,43,0.00,,,0.00,weatherlink.com 1.10,2013-05-04 15:47:00,
2013-05-04 12:02:00,68.2,42.0,30.29,ENE,64,3.0,9.0,39,0.00,,,0.00,weatherlink.com 1.10,2013-05-04 16:02:00,
2013-05-04 12:17:00,68.8,43.0,30.28,WNW,295,2.0,7.0,40,0.00,,,0.00,weatherlink.com 1.10,2013-05-04 16:17:00,
2013-05-04 12:32:00,69.6,45.0,30.27,WNW,290,0.0,7.0,42,0.00,,,0.00,weatherlink.com 1.10,2013-05-04 16:32:00,
2013-05-04 12:47:00,69.9,42.0,30.27,ENE,73,2.0,5.0,36,0.00,,,0.00,weatherlink.com 1.10,2013-05-04 16:47:00,
2013-05-04 13:02:00,70.3,46.0,30.26,North,355,3.0,7.0,42,0.00,,,0.00,weatherlink.com 1.10,2013-05-04 17:02:00,
2013-05-04 13:17:00,71.3,44.0,30.26,South,189,5.0,9.0,38,0.00,,,0.00,weatherlink.com 1.10,2013-05-04 17:17:00,
2013-05-04 13:32:00,70.8,42.0,30.26,NNW,347,3.0,6.0,35,0.00,,,0.00,weatherlink.com 1.10,2013-05-04 17:32:00,
2013-05-04 13:48:00,70.9,43.0,30.26,East,92,4.0,10.0,36,0.00,,,0.00,weatherlink.com 1.10,2013-05-04 17:48:00,
2013-05-04 14:03:00,70.8,46.0,30.25,NNE,12,1.0,6.0,41,0.00,,,0.00,weatherlink.com 1.10,2013-05-04 18:03:00,
2013-05-04 14:18:00,71.3,41.0,30.25,NNW,332,4.0,9.0,34,0.00,,,0.00,weatherlink.com 1.10,2013-05-04 18:18:00,
2013-05-04 14:33:00,70.6,47.0,30.25,North,5,2.0,11.0,43,0.00,,,0.00,weatherlink.com 1.10,2013-05-04 18:33:00,
2013-05-04 14:48:00,70.9,43.0,30.24,NNW,333,3.0,8.0,37,0.00,,,0.00,weatherlink.com 1.10,2013-05-04 18:48:00,
2013-05-04 15:03:00,70.9,43.0,30.23,North,11,0.0,6.0,37,0.00,,,0.00,weatherlink.com 1.10,2013-05-04 19:03:00,
2013-05-04 15:18:00,72.4,44.0,30.23,North,355,2.0,8.0,36,0.00,,,0.00,weatherlink.com 1.10,2013-05-04 19:18:00,
2013-05-04 15:33:00,72.8,46.0,30.22,NW,317,2.0,8.0,39,0.00,,,0.00,weatherlink.com 1.10,2013-05-04 19:33:00,
2013-05-04 15:48:00,72.0,44.0,30.22,SE,137,1.0,7.0,37,0.00,,,0.00,weatherlink.com 1.10,2013-05-04 19:48:00,
2013-05-04 16:03:00,72.6,44.0,30.22,WSW,249,5.0,10.0,36,0.00,,,0.00,weatherlink.com 1.10,2013-05-04 20:03:00,
2013-05-04 16:18:00,72.3,46.0,30.21,ENE,74,2.0,9.0,39,0.00,,,0.00,weatherlink.com 1.10,2013-05-04 20:18:00,
2013-05-04 16:33:00,71.8,47.0,30.22,NE,36,1.0,10.0,41,0.00,,,0.00,weatherlink.com 1.10,2013-05-04 20:33:00,
2013-05-04 16:48:00,71.5,46.0,30.22,SSE,159,4.0,7.0,41,0.00,,,0.00,weatherlink.com 1.10,2013-05-04 20:48:00,
2013-05-04 17:03:00,70.4,47.0,30.23,South,186,2.0,6.0,43,0.00,,,0.00,weatherlink.com 1.10,2013-05-04 21:03:00,
2013-05-04 17:18:00,69.5,47.0,30.23,SSW,213,1.0,6.0,45,0.00,,,0.00,weatherlink.com 1.10,2013-05-04 21:18:00,
2013-05-04 17:33:00,69.2,46.0,30.23,SSW,194,0.0,6.0,44,0.00,,,0.00,weatherlink.com 1.10,2013-05-04 21:33:00,
2013-05-04 17:48:00,67.5,46.0,30.23,East,79,1.0,5.0,47,0.00,,,0.00,weatherlink.com 1.10,2013-05-04 21:48:00,
2013-05-04 18:03:00,67.1,46.0,30.23,ENE,71,3.0,4.0,47,0.00,,,0.00,weatherlink.com 1.10,2013-05-04 22:03:00,
2013-05-04 18:18:00,66.0,46.0,30.23,East,82,3.0,6.0,49,0.00,,,0.00,weatherlink.com 1.10,2013-05-04 22:18:00,
2013-05-04 18:33:00,65.1,46.0,30.24,SSE,167,0.0,5.0,50,0.00,,,0.00,weatherlink.com 1.10,2013-05-04 22:33:00,
2013-05-04 18:48:00,64.6,46.0,30.24,South,187,4.0,6.0,51,0.00,,,0.00,weatherlink.com 1.10,2013-05-04 22:48:00,
2013-05-04 19:03:00,63.5,46.0,30.25,ESE,117,1.0,4.0,53,0.00,,,0.00,weatherlink.com 1.10,2013-05-04 23:03:00,
2013-05-04 19:18:00,61.3,46.0,30.25,SW,229,0.0,3.0,58,0.00,,,0.00,weatherlink.com 1.10,2013-05-04 23:18:00,
2013-05-04 19:33:00,59.7,46.0,30.26,SSE,154,0.0,3.0,61,0.00,,,0.00,weatherlink.com 1.10,2013-05-04 23:33:00,
2013-05-04 19:48:00,58.5,46.0,30.26,SSW,193,0.0,3.0,63,0.00,,,0.00,weatherlink.com 1.10,2013-05-04 23:48:00,
2013-05-04 20:03:00,57.3,45.0,30.27,SE,146,0.0,2.0,64,0.00,,,0.00,weatherlink.com 1.10,2013-05-05 00:03:00,
2013-05-04 20:18:00,56.2,45.0,30.28,East,94,1.0,2.0,66,0.00,,,0.00,weatherlink.com 1.10,2013-05-05 00:18:00,
2013-05-04 20:33:00,55.0,44.0,30.28,SSE,160,0.0,3.0,66,0.00,,,0.00,weatherlink.com 1.10,2013-05-05 00:33:00,
2013-05-04 20:48:00,54.1,43.0,30.28,SSE,164,0.0,2.0,67,0.00,,,0.00,weatherlink.com 1.10,2013-05-05 00:48:00,
2013-05-04 21:03:00,53.3,43.0,30.29,East,100,0.0,1.0,69,0.00,,,0.00,weatherlink.com 1.10,2013-05-05 01:03:00,
2013-05-04 21:18:00,52.5,43.0,30.30,East,82,0.0,1.0,70,0.00,,,0.00,weatherlink.com 1.10,2013-05-05 01:18:00,
2013-05-04 21:33:00,51.7,43.0,30.30,ESE,107,0.0,3.0,71,0.00,,,0.00,weatherlink.com 1.10,2013-05-05 01:33:00,
2013-05-04 21:48:00,51.1,43.0,30.30,ESE,107,0.0,1.0,73,0.00,,,0.00,weatherlink.com 1.10,2013-05-05 01:48:00,
2013-05-04 22:03:00,50.2,43.0,30.31,ESE,107,0.0,1.0,75,0.00,,,0.00,weatherlink.com 1.10,2013-05-05 02:03:00,
2013-05-04 22:18:00,49.5,43.0,30.30,ESE,107,0.0,0.0,77,0.00,,,0.00,weatherlink.com 1.10,2013-05-05 02:18:00,
2013-05-04 22:33:00,49.0,42.0,30.30,ESE,107,0.0,1.0,78,0.00,,,0.00,weatherlink.com 1.10,2013-05-05 02:33:00,
2013-05-04 22:48:00,48.4,43.0,30.30,ESE,107,0.0,1.0,80,0.00,,,0.00,weatherlink.com 1.10,2013-05-05 02:48:00,
2013-05-04 23:03:00,47.7,42.0,30.31,ESE,107,0.0,0.0,81,0.00,,,0.00,weatherlink.com 1.10,2013-05-05 03:03:00,
2013-05-04 23:18:00,47.0,42.0,30.31,ESE,107,0.0,0.0,83,0.00,,,0.00,weatherlink.com 1.10,2013-05-05 03:18:00,
2013-05-04 23:33:00,46.3,42.0,30.31,ESE,107,0.0,0.0,84,0.00,,,0.00,weatherlink.com 1.10,2013-05-05 03:33:00,
2013-05-04 23:48:00,45.9,42.0,30.31,ESE,107,0.0,0.0,86,0.00,,,0.00,weatherlink.com 1.10,2013-05-05 03:48:00,